This is the latest recevied weather packets stored in our database for station/object OM8AGG-10. If no packets are shown the sender has not sent any weather packets the latest 10 day(s).
| Time | Temp. | Humidity | Pressure | Rain* | Wind** | Luminosity | Snow |
|---|---|---|---|---|---|---|---|
| 1788151342 | 11.11° C | 100% | 1019.2 hPa | - | - | - | - |
| 1788150442 | 11.11° C | 100% | 1019.3 hPa | - | - | - | - |
| 1788149542 | 10.56° C | 100% | 1019.2 hPa | - | - | - | - |
| 1788148641 | 10.56° C | 100% | 1019.1 hPa | - | - | - | - |
| 1788147741 | 10.56° C | 100% | 1019 hPa | - | - | - | - |
| 1788146841 | 10.56° C | 100% | 1019 hPa | - | - | - | - |
| 1788145941 | 11.11° C | 99% | 1019.1 hPa | - | - | - | - |
| 1788145041 | 11.11° C | 100% | 1019 hPa | - | - | - | - |
| 1788144141 | 11.11° C | 97% | 1019 hPa | - | - | - | - |
| 1788143241 | 11.67° C | 99% | 1018.9 hPa | - | - | - | - |
| 1788142341 | 11.67° C | 98% | 1019 hPa | - | - | - | - |
| 1788123438 | 15° C | 80% | 1018.4 hPa | - | - | - | - |
| 1788122538 | 15.56° C | 77% | 1018.3 hPa | - | - | - | - |
| 1788121638 | 15.56° C | 76% | 1018 hPa | - | - | - | - |
| 1788117137 | 17.78° C | 66% | 1017.9 hPa | - | - | - | - |
| 1788115337 | 20° C | 56% | 1017.7 hPa | - | - | - | - |
| 1788112636 | 21.11° C | 51% | 1017.2 hPa | - | - | - | - |
| 1788111736 | 22.22° C | 49% | 1017.1 hPa | - | - | - | - |
| 1788110836 | 22.22° C | 49% | 1016.9 hPa | - | - | - | - |
| 1788109936 | 23.33° C | 49% | 1016.8 hPa | - | - | - | - |
| 1788109036 | 24.44° C | 47% | 1016.7 hPa | - | - | - | - |
| 1788107236 | 28.33° C | 37% | 1016.7 hPa | - | - | - | - |
| 1788106335 | 31.67° C | 25% | 1016.5 hPa | - | - | - | - |
| 1788105435 | 32.78° C | 28% | 1016.7 hPa | - | - | - | - |
| 1788104535 | 33.33° C | 27% | 1016.7 hPa | - | - | - | - |
* Rain since midnight (hover to see other rain measurements)
** Current wind speed in m/s (hover to see current wind gust speed)